Time;durP1;ratioP1;P1;durP2;ratioP2;P2;SDS_P1;SDS_P2;PMS_P1;PMS_P2;Temp;Humidity;BMP_temperature;BMP_pressure;BME280_temperature;BME280_humidity;BME280_pressure;Samples;Min_cycle;Max_cycle;Signal;HPM_P1;HPM_P2
2022/04/12 00:01:01;;;;;;;66.78;28.60;;;;;;;2.15;59.41;98812.09;5087785;28;20114;-67
2022/04/12 00:03:27;;;;;;;64.32;27.17;;;;;;;2.14;59.09;98812.34;5090835;28;20069;-67
2022/04/12 00:05:52;;;;;;;62.78;26.33;;;;;;;2.12;59.54;98806.34;5090696;28;20146;-67
2022/04/12 00:08:18;;;;;;;89.20;35.00;;;;;;;2.12;59.19;98812.56;5090415;28;20439;-67
2022/04/12 00:10:44;;;;;;;73.82;30.92;;;;;;;2.11;59.60;98816.31;5090102;28;20603;-67
2022/04/12 00:13:09;;;;;;;76.25;32.78;;;;;;;2.11;59.40;98810.09;5090230;28;20490;-67
2022/04/12 00:15:35;;;;;;;59.63;28.30;;;;;;;2.11;60.12;98810.09;5090589;28;20031;-66
2022/04/12 00:20:45;;;;;;;48.33;23.50;;;;;;;2.10;59.80;98801.16;5090372;28;20442;-67
2022/04/12 00:23:12;;;;;;;55.30;23.20;;;;;;;2.11;59.33;98804.69;5090194;28;20027;-67
2022/04/12 00:25:38;;;;;;;52.40;23.70;;;;;;;2.13;58.96;98800.69;5089989;28;20070;-67
2022/04/12 00:28:05;;;;;;;49.60;22.60;;;;;;;2.14;59.17;98796.91;5089462;28;20051;-66
2022/04/12 00:30:30;;;;;;;45.92;20.80;;;;;;;2.10;59.43;98798.44;5089782;28;20023;-66
2022/04/12 00:32:56;;;;;;;45.25;20.45;;;;;;;2.07;58.77;98798.91;5089598;28;20028;-67
2022/04/12 00:35:23;;;;;;;49.40;24.25;;;;;;;2.05;59.38;98791.03;5089677;28;20024;-66
2022/04/12 00:37:52;;;;;;;47.50;23.20;;;;;;;2.04;59.76;98789.38;5089544;28;20032;-67
2022/04/12 00:40:19;;;;;;;50.67;23.42;;;;;;;2.04;59.61;98792.09;5092033;28;20105;-67
2022/04/12 00:42:46;;;;;;;51.05;23.15;;;;;;;2.00;59.28;98785.50;5093977;28;20050;-67
2022/04/12 00:45:11;;;;;;;48.63;22.52;;;;;;;1.98;59.45;98798.41;5093651;28;20041;-67
2022/04/12 00:47:37;;;;;;;48.30;23.65;;;;;;;1.99;59.35;98800.06;5093488;28;20031;-67
2022/04/12 00:50:07;;;;;;;47.90;22.13;;;;;;;1.98;60.28;98801.13;5092382;28;20111;-66
2022/04/12 00:52:36;;;;;;;46.40;22.13;;;;;;;1.98;60.19;98794.91;5094883;28;20127;-66
2022/04/12 00:55:04;;;;;;;53.00;22.95;;;;;;;1.99;60.46;98796.56;5094602;28;20038;-67
2022/04/12 00:57:34;;;;;;;56.65;24.42;;;;;;;1.99;60.10;98794.66;5093627;28;20504;-67
2022/04/12 01:00:00;;;;;;;55.72;24.42;;;;;;;1.99;59.82;98802.78;5093409;28;20026;-67
2022/04/12 01:02:26;;;;;;;51.75;23.83;;;;;;;1.99;60.15;98801.97;5093107;28;20103;-67
2022/04/12 01:04:51;;;;;;;51.60;23.40;;;;;;;1.98;60.02;98803.84;5093215;28;20095;-66
2022/04/12 01:07:18;;;;;;;52.08;24.17;;;;;;;1.99;61.01;98804.66;5093209;28;20017;-68
2022/04/12 01:09:43;;;;;;;53.15;24.02;;;;;;;1.99;61.00;98807.38;5093335;28;20043;-67
2022/04/12 01:12:10;;;;;;;53.45;23.15;;;;;;;1.98;60.41;98816.53;5093060;28;20529;-67
2022/04/12 01:14:37;;;;;;;54.10;22.75;;;;;;;1.95;60.58;98811.59;5093419;28;21201;-67
2022/04/12 01:17:05;;;;;;;51.80;24.45;;;;;;;1.94;60.26;98808.06;5092591;28;20031;-67
2022/04/12 01:19:30;;;;;;;47.10;22.73;;;;;;;1.94;60.43;98813.47;5091561;28;20022;-67
2022/04/12 01:22:05;;;;;;;49.55;23.25;;;;;;;1.93;61.17;98819.94;5092794;28;20017;-67
2022/04/12 01:24:32;;;;;;;46.83;22.52;;;;;;;1.90;61.10;98817.69;5091301;28;20032;-67
2022/04/12 01:26:59;;;;;;;47.33;21.73;;;;;;;1.91;60.55;98824.75;5092926;28;20048;-68
2022/04/12 01:29:25;;;;;;;47.67;21.52;;;;;;;1.88;60.44;98827.91;5092890;28;20822;-67
2022/04/12 01:31:51;;;;;;;47.10;22.55;;;;;;;1.83;60.40;98814.28;5093764;28;20454;-67
2022/04/12 01:34:16;;;;;;;41.83;22.45;;;;;;;1.78;60.59;98817.66;5094424;28;20024;-67
2022/04/12 01:36:42;;;;;;;49.22;23.38;;;;;;;1.75;60.75;98818.09;5093988;28;20443;-67
2022/04/12 01:39:07;;;;;;;49.58;24.27;;;;;;;1.73;60.96;98821.06;5094263;28;20020;-67
2022/04/12 01:41:32;;;;;;;51.00;24.08;;;;;;;1.72;61.31;98819.41;5093731;28;20032;-67
2022/04/12 01:43:58;;;;;;;49.75;25.15;;;;;;;1.69;60.67;98810.91;5093789;28;20390;-67
2022/04/12 01:46:24;;;;;;;62.95;27.50;;;;;;;1.65;61.45;98813.25;5093126;28;20370;-68
2022/04/12 01:48:49;;;;;;;53.47;25.85;;;;;;;1.64;61.35;98814.31;5092588;28;20390;-67
2022/04/12 01:51:16;;;;;;;49.40;24.40;;;;;;;1.61;60.80;98822.88;5090516;28;20545;-67
2022/04/12 01:53:41;;;;;;;52.13;23.92;;;;;;;1.58;61.26;98817.91;5092824;28;20024;-67
2022/04/12 01:56:07;;;;;;;55.25;25.48;;;;;;;1.55;61.38;98819.22;5092684;28;20020;-68
2022/04/12 01:58:33;;;;;;;47.40;23.85;;;;;;;1.52;61.38;98825.06;5092431;28;20039;-68
2022/04/12 02:00:59;;;;;;;49.20;24.02;;;;;;;1.46;61.38;98826.78;5092079;28;20032;-68
2022/04/12 02:03:25;;;;;;;47.17;22.73;;;;;;;1.44;61.35;98826.19;5092972;28;20024;-67
2022/04/12 02:05:51;;;;;;;49.17;22.38;;;;;;;1.43;61.04;98832.66;5092342;28;20151;-68
2022/04/12 02:08:19;;;;;;;45.40;22.00;;;;;;;1.42;61.32;98833.72;5092298;28;20024;-67
2022/04/12 02:10:45;;;;;;;46.50;23.50;;;;;;;1.39;61.34;98838.75;5092250;28;20081;-67
2022/04/12 02:13:10;;;;;;;53.13;23.75;;;;;;;1.34;61.71;98836.75;5092121;28;20020;-67
2022/04/12 02:15:35;;;;;;;51.28;23.10;;;;;;;1.31;62.01;98839.88;5092634;28;20099;-68
2022/04/12 02:18:01;;;;;;;50.53;24.60;;;;;;;1.28;61.57;98837.63;5092270;28;20050;-67
2022/04/12 02:20:27;;;;;;;48.53;22.90;;;;;;;1.27;62.26;98836.78;5092294;28;20070;-67
2022/04/12 02:22:53;;;;;;;45.72;23.15;;;;;;;1.25;61.85;98844.31;5091978;28;20488;-67
2022/04/12 02:25:19;;;;;;;45.20;23.60;;;;;;;1.24;61.76;98839.13;5092360;28;20429;-67
2022/04/12 02:27:44;;;;;;;48.42;24.17;;;;;;;1.24;62.04;98836.44;5091897;28;20056;-67
2022/04/12 02:30:10;;;;;;;44.90;23.45;;;;;;;1.24;62.30;98836.44;5092439;28;20024;-68
2022/04/12 02:32:35;;;;;;;48.45;23.02;;;;;;;1.22;62.46;98839.38;5091825;28;20028;-68
2022/04/12 02:35:01;;;;;;;55.75;24.70;;;;;;;1.20;62.31;98846.88;5091868;28;20078;-67
2022/04/12 02:37:27;;;;;;;52.05;24.10;;;;;;;1.16;62.63;98849.19;5091869;28;20466;-67
2022/04/12 02:39:53;;;;;;;50.72;24.67;;;;;;;1.14;62.22;98845.06;5090612;28;20035;-68
2022/04/12 02:42:18;;;;;;;50.92;25.40;;;;;;;1.13;63.14;98849.63;5091593;28;20024;-67
2022/04/12 02:44:44;;;;;;;53.53;26.13;;;;;;;1.12;63.49;98850.69;5049814;28;1210375;-67
2022/04/12 02:47:09;;;;;;;47.10;24.33;;;;;;;1.11;62.96;98854.44;5092640;28;20036;-67
2022/04/12 02:49:35;;;;;;;51.88;24.90;;;;;;;1.09;62.50;98853.84;5092907;28;20389;-68
2022/04/12 02:52:00;;;;;;;48.15;24.70;;;;;;;1.11;63.60;98859.84;5092490;28;20102;-67
2022/04/12 02:54:26;;;;;;;44.67;23.52;;;;;;;1.13;63.28;98848.81;5092952;28;20099;-67
2022/04/12 02:56:51;;;;;;;43.10;21.58;;;;;;;1.17;63.37;98840.03;5092761;28;20024;-67
2022/04/12 02:59:17;;;;;;;38.75;20.50;;;;;;;1.24;62.63;98850.75;5092993;28;20020;-67
2022/04/12 03:01:42;;;;;;;36.05;19.70;;;;;;;1.30;62.91;98849.06;5092404;28;20085;-68
2022/04/12 03:04:08;;;;;;;38.80;20.85;;;;;;;1.37;63.73;98844.41;5092707;28;20024;-67
2022/04/12 03:06:34;;;;;;;37.42;20.73;;;;;;;1.46;63.83;98847.59;5092666;28;20039;-70
2022/04/12 03:08:59;;;;;;;41.05;22.23;;;;;;;1.53;63.83;98848.34;5092674;28;20032;-68
2022/04/12 03:11:25;;;;;;;42.95;22.10;;;;;;;1.62;64.47;98846.16;5092597;28;20024;-68
2022/04/12 03:13:50;;;;;;;42.38;22.20;;;;;;;1.70;64.29;98845.00;5091713;28;20089;-68
2022/04/12 03:16:16;;;;;;;36.92;21.60;;;;;;;1.75;63.07;98854.09;5092818;28;20450;-68
2022/04/12 03:18:42;;;;;;;38.65;21.90;;;;;;;1.78;63.30;98845.53;5092561;28;20032;-68
2022/04/12 03:21:07;;;;;;;44.28;23.33;;;;;;;1.82;63.70;98843.19;5092425;28;20031;-68
2022/04/12 03:23:33;;;;;;;43.50;23.02;;;;;;;1.86;63.78;98847.09;5090974;28;20067;-68
2022/04/12 03:25:58;;;;;;;39.65;20.85;;;;;;;1.86;64.19;98846.25;5092693;28;20482;-68
2022/04/12 03:28:23;;;;;;;38.90;21.27;;;;;;;1.86;63.96;98841.66;5092245;28;20043;-68
2022/04/12 03:30:49;;;;;;;39.45;21.40;;;;;;;1.86;63.56;98843.53;5092531;28;20024;-68
2022/04/12 03:33:14;;;;;;;40.13;22.30;;;;;;;1.87;63.19;98850.59;5091987;28;20525;-68
2022/04/12 03:35:40;;;;;;;33.92;19.00;;;;;;;1.88;62.94;98850.38;5091953;28;20013;-69
2022/04/12 03:38:05;;;;;;;35.15;19.45;;;;;;;1.88;63.38;98854.94;5091413;28;20477;-68
2022/04/12 03:40:32;;;;;;;33.45;18.13;;;;;;;1.88;63.61;98849.53;5091927;28;20072;-68
2022/04/12 03:43:01;;;;;;;34.60;19.02;;;;;;;1.89;63.60;98849.31;5091260;28;20119;-68
2022/04/12 03:45:28;;;;;;;43.53;21.30;;;;;;;1.84;62.90;98846.47;5091682;28;20127;-68
2022/04/12 03:47:54;;;;;;;41.20;22.88;;;;;;;1.80;63.32;98842.59;5091661;28;20043;-68
2022/04/12 03:50:19;;;;;;;46.60;23.55;;;;;;;1.76;63.54;98847.63;5091777;28;20062;-68
2022/04/12 03:52:44;;;;;;;42.55;22.75;;;;;;;1.73;64.17;98841.84;5091044;28;20385;-68
2022/04/12 03:55:10;;;;;;;38.28;20.73;;;;;;;1.71;64.46;98849.34;5091781;28;20385;-68
2022/04/12 03:57:36;;;;;;;35.65;20.33;;;;;;;1.69;63.92;98852.31;5091686;28;20032;-68
2022/04/12 04:00:08;;;;;;;36.88;18.27;;;;;;;1.69;64.66;98849.59;5091847;28;20027;-68
2022/04/12 04:02:36;;;;;;;33.90;18.70;;;;;;;1.68;64.31;98855.22;5091162;28;20055;-68
2022/04/12 04:05:03;;;;;;;30.17;18.23;;;;;;;1.70;64.02;98858.53;5091505;28;20073;-67
2022/04/12 04:07:28;;;;;;;29.40;16.40;;;;;;;1.68;64.68;98857.94;5089972;28;20107;-68
2022/04/12 04:09:54;;;;;;;36.40;18.35;;;;;;;1.66;63.96;98857.31;5091384;28;20579;-68
2022/04/12 04:12:20;;;;;;;36.78;18.75;;;;;;;1.62;64.13;98859.66;5091141;28;20035;-68
2022/04/12 04:14:47;;;;;;;32.03;17.05;;;;;;;1.59;64.10;98857.44;5091117;28;20024;-68
2022/04/12 04:17:13;;;;;;;30.73;18.25;;;;;;;1.56;64.32;98858.72;5090897;28;20035;-68
2022/04/12 04:19:39;;;;;;;35.85;19.88;;;;;;;1.53;64.81;98858.31;5091304;28;20448;-68
2022/04/12 04:22:04;;;;;;;31.13;17.48;;;;;;;1.50;64.34;98859.63;5091044;28;20173;-68
2022/04/12 04:24:30;;;;;;;32.90;18.73;;;;;;;1.48;64.64;98870.66;5091189;28;20020;-68
2022/04/12 04:26:55;;;;;;;33.35;17.63;;;;;;;1.45;64.24;98865.69;5090828;28;20036;-68
2022/04/12 04:29:24;;;;;;;30.10;17.80;;;;;;;1.45;64.40;98865.69;5091208;28;20051;-68
2022/04/12 04:31:53;;;;;;;38.00;19.30;;;;;;;1.44;64.65;98868.63;5089702;28;20482;-68
2022/04/12 04:34:19;;;;;;;34.75;19.90;;;;;;;1.40;65.05;98870.97;5090285;28;20150;-68
2022/04/12 04:36:45;;;;;;;40.10;21.17;;;;;;;1.40;65.18;98864.72;5087978;28;20127;-68
2022/04/12 04:39:10;;;;;;;37.35;20.08;;;;;;;1.39;65.33;98874.72;5090290;28;20474;-68
2022/04/12 04:41:36;;;;;;;32.80;18.65;;;;;;;1.39;65.14;98866.63;5089769;28;20025;-68
2022/04/12 04:44:01;;;;;;;37.88;19.75;;;;;;;1.40;64.85;98870.97;5090788;28;20487;-68
2022/04/12 04:46:28;;;;;;;46.45;21.35;;;;;;;1.43;65.38;98869.69;5091207;28;20029;-68
2022/04/12 04:48:53;;;;;;;39.72;20.85;;;;;;;1.44;64.71;98877.56;5090918;28;20385;-68
2022/04/12 04:51:19;;;;;;;68.35;28.30;;;;;;;1.49;64.94;98876.88;5090719;28;20038;-68
2022/04/12 04:53:49;;;;;;;45.65;22.15;;;;;;;1.53;64.78;98875.38;5090501;28;20064;-68
2022/04/12 04:56:15;;;;;;;;;;;;;;;1.57;65.03;98882.00;5091597;28;20056;-68
2022/04/12 04:58:40;;;;;;;32.63;16.30;;;;;;;1.61;64.48;98890.47;5089235;28;20401;-67
2022/04/12 05:01:05;;;;;;;27.58;13.57;;;;;;;1.70;63.76;98897.22;5090668;28;20031;-68
2022/04/12 05:03:31;;;;;;;246.85;77.78;;;;;;;1.70;63.53;98899.94;5089359;28;20028;-68
2022/04/12 05:05:57;;;;;;;117.60;42.58;;;;;;;1.73;64.34;98899.47;5090247;28;20104;-68
2022/04/12 05:08:23;;;;;;;81.85;33.22;;;;;;;1.78;64.02;98905.03;5089988;28;20028;-68
2022/04/12 05:10:49;;;;;;;69.35;28.95;;;;;;;1.87;64.24;98908.25;5090746;28;20104;-69
2022/04/12 05:13:15;;;;;;;51.75;24.45;;;;;;;1.97;64.18;98917.69;5090805;28;20115;-68
2022/04/12 05:15:40;;;;;;;55.53;28.20;;;;;;;2.02;63.88;98915.94;5090528;28;20177;-68
2022/04/12 05:18:06;;;;;;;63.05;29.85;;;;;;;2.10;63.68;98920.19;5090033;28;20103;-68
2022/04/12 05:20:31;;;;;;;79.72;35.65;;;;;;;2.14;64.08;98926.81;5090876;28;20028;-68
2022/04/12 05:22:57;;;;;;;104.43;43.50;;;;;;;2.14;63.07;98934.13;5090638;28;20516;-68
2022/04/12 05:25:22;;;;;;;340.48;112.65;;;;;;;2.17;63.91;98930.97;5090913;28;20111;-68
2022/04/12 05:27:48;;;;;;;489.35;152.07;;;;;;;2.23;63.52;98938.97;5094091;28;20389;-68
2022/04/12 05:30:16;;;;;;;407.63;121.28;;;;;;;2.30;64.01;98938.06;5094623;28;20023;-68
2022/04/12 05:32:42;;;;;;;191.10;64.85;;;;;;;2.32;63.00;98941.34;5094147;28;20036;-68
2022/04/12 05:35:09;;;;;;;125.88;48.03;;;;;;;2.31;62.79;98947.81;5093000;28;20389;-68
2022/04/12 05:37:45;;;;;;;90.20;39.28;;;;;;;2.28;63.32;98942.88;5093815;28;20032;-68
2022/04/12 05:40:12;;;;;;;90.55;39.67;;;;;;;2.27;62.82;98944.72;5094333;28;20085;-68
2022/04/12 05:42:38;;;;;;;89.50;38.92;;;;;;;2.35;63.67;98949.03;5094178;28;20539;-68
2022/04/12 05:45:05;;;;;;;78.93;35.10;;;;;;;2.47;63.18;98940.94;5093883;28;20409;-68
2022/04/12 05:47:42;;;;;;;75.75;33.42;;;;;;;2.58;63.01;98942.00;5093844;28;20024;-68
2022/04/12 05:50:09;;;;;;;61.55;27.85;;;;;;;2.73;63.77;98949.69;5092732;28;20028;-68
2022/04/12 05:52:35;;;;;;;60.70;27.98;;;;;;;2.80;63.27;98948.56;5093737;28;20020;-68
2022/04/12 05:55:00;;;;;;;51.63;25.92;;;;;;;2.85;63.23;98953.25;5093878;28;20377;-68
2022/04/12 05:57:26;;;;;;;55.00;26.02;;;;;;;2.89;63.59;98951.72;5093529;28;20020;-68
2022/04/12 05:59:51;;;;;;;47.55;23.58;;;;;;;2.97;63.39;98945.97;5093837;28;20028;-68
2022/04/12 06:02:16;;;;;;;48.28;24.33;;;;;;;3.11;63.77;98952.00;5093555;28;20024;-68
2022/04/12 06:04:42;;;;;;;42.40;21.95;;;;;;;3.20;63.57;98951.66;5093581;28;20085;-68
2022/04/12 06:07:07;;;;;;;47.83;23.65;;;;;;;3.29;63.37;98944.78;5093092;28;20024;-68
2022/04/12 06:09:33;;;;;;;32.97;16.58;;;;;;;3.41;63.50;98945.59;5093731;28;20028;-68
2022/04/12 06:11:58;;;;;;;30.83;14.63;;;;;;;3.55;63.35;98946.19;5093356;28;20016;-68
2022/04/12 06:14:23;;;;;;;32.97;15.00;;;;;;;3.67;62.30;98943.44;5093540;28;20027;-68
2022/04/12 06:16:49;;;;;;;31.65;14.25;;;;;;;3.81;62.14;98948.59;5093015;28;20012;-68
2022/04/12 06:19:14;;;;;;;28.13;13.60;;;;;;;3.92;62.67;98953.19;5093604;28;20023;-67
2022/04/12 06:21:40;;;;;;;27.50;14.50;;;;;;;4.04;62.27;98963.19;5093590;28;20020;-70
2022/04/12 06:24:05;;;;;;;37.90;18.33;;;;;;;4.14;62.03;98964.22;5093332;28;20473;-69
2022/04/12 06:26:31;;;;;;;38.72;19.95;;;;;;;4.24;62.09;98966.28;5093373;28;20020;-69
2022/04/12 06:28:56;;;;;;;34.03;19.33;;;;;;;4.32;61.39;98957.78;5092888;28;20110;-69
2022/04/12 06:31:21;;;;;;;28.20;13.27;;;;;;;4.43;60.83;98960.69;5092989;28;20109;-69
2022/04/12 06:33:47;;;;;;;27.45;13.80;;;;;;;4.54;60.90;98956.25;5093198;28;20470;-69
2022/04/12 06:36:12;;;;;;;22.63;11.45;;;;;;;4.68;60.70;98965.75;5092663;28;20532;-69
2022/04/12 06:38:38;;;;;;;26.58;13.25;;;;;;;4.76;60.64;98962.63;5091331;28;20020;-69
2022/04/12 06:41:03;;;;;;;25.80;12.95;;;;;;;4.85;59.77;98963.06;5092846;28;20075;-69
2022/04/12 06:43:29;;;;;;;29.35;14.43;;;;;;;4.94;60.07;98963.47;5093132;28;20104;-69
2022/04/12 06:45:54;;;;;;;28.67;13.70;;;;;;;5.05;60.00;98964.44;5092714;28;20032;-69
2022/04/12 06:48:20;;;;;;;32.40;14.85;;;;;;;5.16;59.68;98965.41;5092554;28;20047;-69
2022/04/12 06:50:45;;;;;;;35.20;17.80;;;;;;;5.28;59.55;98965.34;5092746;28;20016;-69
2022/04/12 06:53:10;;;;;;;29.85;14.65;;;;;;;5.35;59.46;98961.38;5092283;28;20028;-69
2022/04/12 06:55:36;;;;;;;31.83;15.88;;;;;;;5.46;59.17;98964.25;5091894;28;20047;-69
2022/04/12 06:58:02;;;;;;;31.67;16.48;;;;;;;5.56;58.36;98969.81;5090638;28;20115;-68
2022/04/12 07:00:27;;;;;;;27.98;13.02;;;;;;;5.67;58.62;98970.81;5090882;28;20543;-68
2022/04/12 07:02:53;;;;;;;25.77;11.90;;;;;;;5.72;58.52;98968.13;5091251;28;20139;-70
2022/04/12 07:05:18;;;;;;;30.02;12.85;;;;;;;5.79;57.77;98971.50;5088008;28;20394;-69
2022/04/12 07:07:44;;;;;;;19.88;10.48;;;;;;;5.91;57.16;98967.84;5091595;28;20063;-70
2022/04/12 07:10:12;;;;;;;22.50;12.30;;;;;;;6.01;57.34;98967.16;5091188;28;20024;-68
2022/04/12 07:12:39;;;;;;;31.55;14.43;;;;;;;6.10;57.79;98962.91;5091670;28;20028;-68
2022/04/12 07:15:05;;;;;;;23.13;11.70;;;;;;;6.19;57.29;98971.47;5092152;28;20028;-68
2022/04/12 07:17:31;;;;;;;21.67;11.93;;;;;;;6.26;57.16;98966.66;5091062;28;20085;-69
2022/04/12 07:19:56;;;;;;;22.30;11.73;;;;;;;6.33;56.82;98975.44;5091999;28;20436;-69
2022/04/12 07:22:21;;;;;;;21.48;10.40;;;;;;;6.41;56.02;98982.34;5091555;28;20035;-69
2022/04/12 07:24:47;;;;;;;22.05;10.45;;;;;;;6.47;56.13;98978.59;5090887;28;20037;-69
2022/04/12 07:27:12;;;;;;;22.30;11.15;;;;;;;6.54;55.91;98979.22;5091093;28;20474;-69
2022/04/12 07:29:38;;;;;;;22.05;11.48;;;;;;;6.64;55.77;98978.47;5091866;28;20066;-69
2022/04/12 07:32:04;;;;;;;22.27;10.43;;;;;;;6.75;55.53;98978.59;5091880;28;20032;-69
2022/04/12 07:34:30;;;;;;;22.83;10.98;;;;;;;6.84;55.47;98990.69;5092106;28;20028;-69
2022/04/12 07:36:55;;;;;;;18.80;10.30;;;;;;;6.95;54.64;98984.22;5091669;28;20416;-70
2022/04/12 07:39:22;;;;;;;18.50;8.75;;;;;;;7.01;53.84;98982.38;5091799;28;20103;-68
2022/04/12 07:41:48;;;;;;;21.30;10.48;;;;;;;7.11;53.98;98987.09;5088284;28;20081;-69
2022/04/12 07:44:14;;;;;;;20.42;10.30;;;;;;;7.25;53.61;98991.03;5090663;28;20040;-69
2022/04/12 07:46:40;;;;;;;21.77;9.98;;;;;;;7.34;53.70;98991.34;5090003;28;20090;-69
2022/04/12 07:49:05;;;;;;;17.85;9.30;;;;;;;7.42;53.19;98982.69;5088799;28;20408;-68
2022/04/12 07:51:31;;;;;;;21.10;10.27;;;;;;;7.50;53.62;98984.09;5090812;28;20058;-70
2022/04/12 07:53:58;;;;;;;20.23;10.27;;;;;;;7.63;51.45;98991.00;5091014;28;20028;-71
2022/04/12 07:56:23;;;;;;;19.25;9.77;;;;;;;7.64;50.93;98989.91;5090912;28;20074;-69
2022/04/12 07:58:49;;;;;;;24.25;10.88;;;;;;;7.70;51.48;98979.84;5090891;28;20015;-69
2022/04/12 08:01:14;;;;;;;22.20;10.43;;;;;;;7.78;52.01;98978.53;5089759;28;20107;-69
2022/04/12 08:03:40;;;;;;;20.13;9.80;;;;;;;7.88;50.48;98984.03;5091262;28;20025;-69
2022/04/12 08:06:05;;;;;;;18.38;9.23;;;;;;;7.96;50.08;98986.25;5090206;28;20394;-70
2022/04/12 08:08:32;;;;;;;22.48;10.32;;;;;;;8.04;50.66;98988.47;5090890;28;20382;-68
2022/04/12 08:10:58;;;;;;;20.20;9.95;;;;;;;8.12;50.86;98989.06;5089835;28;20028;-68
2022/04/12 08:13:23;;;;;;;18.85;9.02;;;;;;;8.23;50.75;98985.28;5091001;28;20024;-69
2022/04/12 08:15:49;;;;;;;25.10;11.18;;;;;;;8.34;50.58;98980.66;5091073;28;20020;-69
2022/04/12 08:18:14;;;;;;;22.83;10.85;;;;;;;8.47;50.32;98984.78;5090222;28;20024;-69
2022/04/12 08:20:40;;;;;;;23.55;11.68;;;;;;;8.56;48.06;98983.22;5091202;28;20517;-67
2022/04/12 08:23:06;;;;;;;17.38;9.57;;;;;;;8.67;46.72;98981.31;5090720;28;20397;-69
2022/04/12 08:25:31;;;;;;;21.40;10.45;;;;;;;8.71;48.28;98985.16;5090983;28;20066;-70
2022/04/12 08:27:56;;;;;;;15.40;7.50;;;;;;;8.79;45.76;98989.25;5089954;28;20051;-69
2022/04/12 08:30:22;;;;;;;26.42;11.52;;;;;;;8.79;45.42;98981.06;5090652;28;20024;-68
2022/04/12 08:32:47;;;;;;;19.20;8.68;;;;;;;8.77;46.15;98980.50;5090101;28;20079;-69
2022/04/12 08:35:13;;;;;;;13.57;6.80;;;;;;;8.81;46.53;98984.34;5087254;28;20035;-68
2022/04/12 08:37:38;;;;;;;14.18;7.25;;;;;;;8.89;45.82;98989.28;5086973;28;20028;-69
2022/04/12 08:40:04;;;;;;;12.60;7.85;;;;;;;9.02;45.26;98990.66;5087327;28;20535;-68
2022/04/12 08:42:30;;;;;;;8.90;5.38;;;;;;;9.09;44.91;98991.22;5083855;28;20026;-68
2022/04/12 08:44:58;;;;;;;9.52;5.65;;;;;;;9.18;44.87;98979.72;5087246;28;20404;-68
2022/04/12 08:47:25;;;;;;;7.45;3.95;;;;;;;9.23;45.16;98987.94;5085561;28;20051;-70
2022/04/12 08:49:51;;;;;;;10.77;5.13;;;;;;;9.30;43.78;98983.00;5089337;28;20024;-68
2022/04/12 08:52:16;;;;;;;10.38;5.38;;;;;;;9.38;44.52;98987.09;5087436;28;20032;-69
2022/04/12 08:54:44;;;;;;;8.68;5.15;;;;;;;9.47;44.97;98988.19;5088867;28;20028;-70
2022/04/12 08:57:11;;;;;;;9.10;5.55;;;;;;;9.56;43.61;98979.41;5088534;28;20093;-69
2022/04/12 08:59:37;;;;;;;9.63;5.57;;;;;;;9.57;40.89;98978.31;5087949;28;20032;-69
2022/04/12 09:02:07;;;;;;;9.93;4.50;;;;;;;9.61;41.93;98980.22;5091582;28;20149;-72
2022/04/12 09:04:33;;;;;;;7.60;3.90;;;;;;;9.67;40.75;98983.75;5091584;28;20025;-72
2022/04/12 09:07:00;;;;;;;9.02;4.78;;;;;;;9.65;41.06;98989.53;5091505;28;20453;-70
2022/04/12 09:09:29;;;;;;;12.00;7.00;;;;;;;9.67;40.75;98973.63;5093188;28;20543;-71
2022/04/12 09:12:03;;;;;;;14.27;7.10;;;;;;;9.72;41.43;98977.47;5091943;28;20131;-72
2022/04/12 09:14:54;;;;;;;15.30;8.30;;;;;;;9.80;41.82;98969.50;5093180;28;20028;-72
2022/04/12 09:17:35;;;;;;;11.35;6.30;;;;;;;10.00;42.60;98964.22;5091213;28;20024;-72
2022/04/12 09:20:03;;;;;;;12.07;6.45;;;;;;;10.23;43.54;98960.81;5092404;28;20101;-72
2022/04/12 09:22:31;;;;;;;10.77;5.85;;;;;;;10.36;40.70;98961.31;5091878;28;20135;-71
2022/04/12 09:24:59;;;;;;;10.73;5.82;;;;;;;10.40;39.47;98957.75;5092756;28;20016;-68
2022/04/12 09:27:27;;;;;;;12.48;5.55;;;;;;;10.37;40.53;98955.56;5091033;28;20039;-71
2022/04/12 09:29:57;;;;;;;9.18;5.60;;;;;;;10.41;40.59;98953.91;5092288;28;20089;-68
2022/04/12 09:32:27;;;;;;;11.35;5.88;;;;;;;10.45;40.49;98954.16;5092577;28;20058;-70
2022/04/12 09:34:54;;;;;;;14.15;6.28;;;;;;;10.50;40.38;98956.03;5090518;28;20517;-70
2022/04/12 09:37:22;;;;;;;13.35;6.18;;;;;;;10.57;40.90;98949.16;5091241;28;20050;-70
2022/04/12 09:40:00;;;;;;;11.57;6.05;;;;;;;10.67;40.67;98953.75;5093210;28;20020;-72
2022/04/12 09:42:41;;;;;;;7.47;5.35;;;;;;;10.79;40.56;98955.34;5092125;28;20741;-71
2022/04/12 09:45:10;;;;;;;10.40;4.90;;;;;;;10.95;41.07;98951.34;5092020;28;20089;-70
2022/04/12 09:47:35;;;;;;;10.15;5.55;;;;;;;11.08;41.45;98949.06;5090454;28;20486;-75
2022/04/12 09:50:02;;;;;;;9.93;4.97;;;;;;;11.18;41.06;98954.47;5088439;28;20028;-67
2022/04/12 09:52:28;;;;;;;9.77;5.00;;;;;;;11.20;40.09;98946.78;5091352;28;20055;-69
2022/04/12 09:54:57;;;;;;;11.60;5.70;;;;;;;11.17;38.06;98941.84;5092832;28;20474;-70
2022/04/12 09:57:23;;;;;;;10.07;5.68;;;;;;;11.04;36.61;98939.75;5092712;28;20409;-69
2022/04/12 09:59:53;;;;;;;10.95;5.82;;;;;;;10.97;36.84;98943.66;5091836;28;20375;-70
2022/04/12 10:02:19;;;;;;;11.07;6.35;;;;;;;10.99;36.83;98940.63;5091357;28;20024;-70
2022/04/12 10:04:44;;;;;;;12.88;5.72;;;;;;;11.06;36.86;98945.78;5090469;28;20120;-68
2022/04/12 10:07:13;;;;;;;11.82;5.63;;;;;;;11.08;37.42;98941.63;5091643;28;20408;-67
2022/04/12 10:09:40;;;;;;;8.93;5.22;;;;;;;11.08;37.42;98940.81;5089341;28;20470;-67
2022/04/12 10:12:06;;;;;;;10.45;5.43;;;;;;;11.09;36.54;98934.22;5089744;28;20421;-68
2022/04/12 10:14:33;;;;;;;9.35;5.60;;;;;;;11.21;37.04;98936.59;5088965;28;20031;-69
2022/04/12 10:17:00;;;;;;;9.57;5.32;;;;;;;11.16;35.96;98937.47;5090936;28;20032;-69
2022/04/12 10:19:27;;;;;;;9.02;5.60;;;;;;;11.09;36.92;98921.31;5089518;28;20470;-68
2022/04/12 10:21:53;;;;;;;9.30;5.32;;;;;;;11.15;37.85;98924.84;5091292;28;20035;-68
2022/04/12 10:24:19;;;;;;;9.95;5.55;;;;;;;11.20;37.72;98930.28;5092783;28;20024;-67
2022/04/12 10:26:46;;;;;;;10.32;5.80;;;;;;;11.31;37.75;98923.56;5092363;28;20035;-68
2022/04/12 10:29:13;;;;;;;10.00;5.65;;;;;;;11.39;37.05;98916.66;5090634;28;20102;-68
2022/04/12 10:31:53;;;;;;;9.95;5.40;;;;;;;11.46;37.07;98919.84;5088159;28;20062;-68
2022/04/12 10:34:19;;;;;;;8.40;5.25;;;;;;;11.63;38.87;98915.84;5087245;28;20032;-68
2022/04/12 10:36:57;;;;;;;11.43;5.53;;;;;;;11.85;38.77;98918.06;5091002;28;20031;-68
2022/04/12 10:39:49;;;;;;;8.75;4.65;;;;;;;11.94;36.53;98907.22;5091267;28;20401;-68
2022/04/12 10:42:23;;;;;;;21.70;11.27;;;;;;;11.99;36.77;98912.69;5090126;28;20028;-69
2022/04/12 10:44:56;;;;;;;8.02;4.97;;;;;;;12.02;35.94;98914.06;5090931;28;20120;-69
2022/04/12 10:47:27;;;;;;;6.60;4.30;;;;;;;12.06;36.74;98902.16;5091292;28;20028;-69
2022/04/12 10:49:59;;;;;;;8.07;4.68;;;;;;;12.23;37.63;98902.75;5091463;28;20073;-68
2022/04/12 10:52:41;;;;;;;8.80;5.00;;;;;;;12.55;38.41;98906.69;5091131;28;20032;-69
2022/04/12 10:55:09;;;;;;;11.07;6.20;;;;;;;12.80;38.16;98898.06;5091283;28;20028;-69
2022/04/12 10:57:35;;;;;;;7.78;4.88;;;;;;;12.99;38.21;98907.41;5091751;28;20036;-69
2022/04/12 11:00:15;;;;;;;7.75;4.20;;;;;;;13.14;38.04;98911.81;5092144;28;20485;-69
2022/04/12 11:03:01;;;;;;;10.07;4.57;;;;;;;13.28;37.80;98903.59;5092214;28;20069;-69
2022/04/12 11:05:32;;;;;;;7.13;4.63;;;;;;;13.44;38.23;98909.66;5090087;28;20039;-70
2022/04/12 11:07:58;;;;;;;7.10;4.15;;;;;;;13.60;36.79;98890.88;5088539;28;20020;-69
2022/04/12 11:10:24;;;;;;;8.05;5.18;;;;;;;13.64;37.21;98889.16;5091932;28;20076;-69
2022/04/12 11:13:03;;;;;;;10.38;5.13;;;;;;;13.63;36.99;98888.34;5091735;28;20111;-69
2022/04/12 11:15:30;;;;;;;8.40;5.10;;;;;;;13.59;36.71;98881.81;5091797;28;20024;-69
2022/04/12 11:18:15;;;;;;;7.60;5.25;;;;;;;13.53;36.28;98880.28;5091502;28;20056;-70
2022/04/12 11:20:43;;;;;;;9.23;5.45;;;;;;;13.54;36.13;98870.88;5091996;28;20375;-70
2022/04/12 11:23:12;;;;;;;11.95;6.25;;;;;;;13.59;37.29;98868.03;5091227;28;20047;-70
2022/04/12 11:25:44;;;;;;;10.70;6.05;;;;;;;13.57;36.72;98869.44;5091620;28;20028;-70
2022/04/12 11:28:14;;;;;;;9.48;5.72;;;;;;;13.58;36.54;98871.91;5090182;28;20028;-70